Impacts TAF Board
For situational awareness. Not to be used for flight planning purposes.
IDs:

KBOS - Boston/Logan Intl, MA, US

Issued at 2320 UTC 09 Dec 2022
Updated at 0316 UTC 10 Dec 2022
Potential Impact None Slight Moderate High
Time<<11/04Z 11/05Z 11/06Z 11/07Z 11/08Z 11/09Z 11/10Z 11/11Z 11/12Z 11/13Z 11/14Z 11/15Z 11/16Z
Type PRVL PRVL
VIS >6 >6
CIG 25 25
Cover BKN BKN
FltCat MVFR MVFR
WX -- --
WDir 30 30
WSpd 12 12
WGst 22 22
WSHgt -- --
WSDir -- --
WSSpd -- --
Raw TAF
KBOS 092320Z 1000/1106 33012KT P6SM SKC
  FM101000 01012KT P6SM BKN035
  FM101500 03012G22KT P6SM BKN025


METAR Board
Radar Display
Forecast Discussion
For situational awareness. Not to be used for flight planning purposes.